createdAt,value
2023-01-29T00:00:10.238Z,100014.41
2023-01-29T00:02:42.740Z,100010.94
2023-01-29T00:05:26.494Z,100016.16
2023-01-29T00:07:56.235Z,100018.75
2023-01-29T00:10:24.933Z,100024.84
2023-01-29T00:12:53.310Z,100018.78
2023-01-29T00:15:21.767Z,100027.41
2023-01-29T00:17:51.588Z,100030.03
2023-01-29T00:20:20.345Z,100030.03
2023-01-29T00:22:48.945Z,100030.03
2023-01-29T00:25:17.339Z,100023.09
2023-01-29T00:27:45.890Z,100027.41
2023-01-29T00:30:19.342Z,100013.56
2023-01-29T00:32:48.280Z,100017.00
2023-01-29T00:35:18.152Z,100018.75
2023-01-29T00:37:46.569Z,100011.81
2023-01-29T00:40:15.695Z,100010.09
2023-01-29T00:43:03.053Z,100010.06
2023-01-29T00:45:31.494Z,100019.59
2023-01-29T00:47:59.823Z,100016.16
2023-01-29T00:50:30.386Z,100022.25
2023-01-29T00:52:58.835Z,100016.16
2023-01-29T00:55:36.074Z,100004.03
2023-01-29T00:58:04.352Z,99999.66
2023-01-29T01:00:32.663Z,99995.34
2023-01-29T01:03:05.918Z,99990.13
2023-01-29T01:05:37.083Z,99985.78
2023-01-29T01:13:16.548Z,99972.78
2023-01-29T01:16:42.898Z,99967.56
2023-01-29T01:20:20.469Z,99971.06
2023-01-29T01:22:56.673Z,99971.94
2023-01-29T01:25:26.830Z,99967.59
2023-01-29T01:27:55.441Z,99970.19
2023-01-29T01:30:24.787Z,99972.78
2023-01-29T01:32:53.469Z,99974.50
2023-01-29T01:35:22.078Z,99960.66
2023-01-29T01:37:50.563Z,99954.59
2023-01-29T01:40:22.058Z,99950.22
2023-01-29T01:42:50.798Z,99945.91
2023-01-29T01:45:23.219Z,99961.50
2023-01-29T01:47:56.052Z,99953.72
2023-01-29T01:50:28.368Z,99951.97
2023-01-29T01:53:02.776Z,99965.84
2023-01-29T01:55:36.618Z,99967.59
2023-01-29T01:58:11.416Z,99958.03
2023-01-29T02:00:40.663Z,99959.78
2023-01-29T02:03:28.637Z,99962.41
2023-01-29T02:06:17.914Z,99971.03
2023-01-29T02:09:10.532Z,99966.72
2023-01-29T02:11:40.334Z,99953.72
2023-01-29T02:14:09.097Z,99953.72
2023-01-29T02:16:38.118Z,99960.66
2023-01-29T02:19:12.090Z,99958.03
2023-01-29T02:21:59.255Z,99958.91
2023-01-29T02:25:10.112Z,99958.03
2023-01-29T02:28:06.695Z,99963.22
2023-01-29T02:30:39.317Z,99958.91
2023-01-29T02:33:18.605Z,99962.34
2023-01-29T02:35:56.046Z,99956.31
2023-01-29T02:38:32.054Z,99954.56
2023-01-29T02:41:04.986Z,99958.03
2023-01-29T02:43:46.802Z,99963.22
2023-01-29T02:46:21.247Z,99951.97
2023-01-29T02:48:58.241Z,99951.97
2023-01-29T02:51:35.553Z,99956.31
2023-01-29T02:54:09.749Z,99958.91
2023-01-29T02:56:45.967Z,99962.41
2023-01-29T02:59:22.508Z,99965.84
2023-01-29T03:01:54.466Z,99958.06
2023-01-29T03:04:28.512Z,99963.25
2023-01-29T03:07:02.739Z,99955.44
2023-01-29T03:09:35.970Z,99952.84
2023-01-29T03:12:28.465Z,99948.50
2023-01-29T03:15:16.273Z,99950.22
2023-01-29T03:18:01.482Z,99942.44
2023-01-29T03:20:35.255Z,99948.50
2023-01-29T03:23:10.575Z,99946.78
2023-01-29T03:25:59.491Z,99943.31
2023-01-29T03:28:48.932Z,99942.44
2023-01-29T03:31:37.681Z,99944.16
2023-01-29T03:34:18.309Z,99944.19
2023-01-29T03:36:55.915Z,99937.25
2023-01-29T03:39:28.420Z,99934.66
2023-01-29T03:42:03.795Z,99942.44
2023-01-29T03:44:40.423Z,99928.56
2023-01-29T03:47:23.417Z,99926.84
2023-01-29T03:50:00.390Z,99925.09
2023-01-29T03:52:38.542Z,99925.09
2023-01-29T03:55:14.194Z,99918.16
2023-01-29T03:57:46.722Z,99915.56
2023-01-29T04:00:21.348Z,99913.81
2023-01-29T04:03:10.930Z,99907.75
2023-01-29T04:05:46.202Z,99919.00
2023-01-29T04:08:30.092Z,99910.34
2023-01-29T04:11:08.403Z,99912.09
2023-01-29T04:13:38.154Z,99909.47
2023-01-29T04:16:11.015Z,99901.69
2023-01-29T04:18:56.281Z,99908.59
2023-01-29T04:21:33.057Z,99900.81
2023-01-29T04:24:01.480Z,99907.75
2023-01-29T04:26:47.311Z,99906.00
2023-01-29T04:29:32.843Z,99913.81
2023-01-29T04:32:12.931Z,99919.91
2023-01-29T04:35:00.798Z,99912.94
2023-01-29T04:37:44.496Z,99898.22
2023-01-29T04:40:21.455Z,99888.66
2023-01-29T04:43:01.359Z,99893.00
2023-01-29T04:45:45.230Z,99883.47
2023-01-29T04:48:21.667Z,99878.25
2023-01-29T04:50:59.108Z,99881.75
2023-01-29T04:53:36.846Z,99887.78
2023-01-29T04:56:14.043Z,99887.78
2023-01-29T04:58:48.451Z,99879.13
2023-01-29T05:01:20.530Z,99873.03
2023-01-29T05:03:53.887Z,99871.31
2023-01-29T05:06:25.118Z,99873.94
2023-01-29T05:08:55.618Z,99873.91
2023-01-29T05:11:26.087Z,99873.03
2023-01-29T05:13:55.282Z,99869.56
2023-01-29T05:16:27.768Z,99875.66
2023-01-29T05:18:56.654Z,99879.13
2023-01-29T05:21:28.236Z,99872.19
2023-01-29T05:24:10.791Z,99872.19
2023-01-29T05:26:56.742Z,99874.78
2023-01-29T05:29:25.230Z,99866.09
2023-01-29T05:31:53.650Z,99860.91
2023-01-29T05:34:22.055Z,99860.03
2023-01-29T05:36:51.945Z,99864.38
2023-01-29T05:39:20.252Z,99868.75
2023-01-29T05:41:48.751Z,99867.00
2023-01-29T05:44:17.217Z,99873.91
2023-01-29T05:46:46.276Z,99859.22
2023-01-29T05:49:14.818Z,99862.66
2023-01-29T05:51:43.104Z,99864.38
2023-01-29T05:54:14.398Z,99868.72
2023-01-29T05:56:42.670Z,99877.41
2023-01-29T05:59:10.989Z,99873.06
2023-01-29T06:01:39.331Z,99887.81
2023-01-29T06:04:07.703Z,99876.53
2023-01-29T06:06:36.023Z,99873.91
2023-01-29T06:09:04.551Z,99873.09
2023-01-29T06:11:34.756Z,99880.88
2023-01-29T06:14:03.245Z,99890.44
2023-01-29T06:16:31.662Z,99893.03
2023-01-29T06:18:59.988Z,99890.41
2023-01-29T06:21:28.233Z,99885.19
2023-01-29T06:23:56.607Z,99889.53
2023-01-29T06:26:24.931Z,99890.41
2023-01-29T06:28:54.568Z,99878.25
2023-01-29T06:31:37.455Z,99881.72
2023-01-29T06:34:06.988Z,99875.66
2023-01-29T06:36:35.385Z,99886.94
2023-01-29T06:39:04.052Z,99887.78
2023-01-29T06:41:32.366Z,99878.25
2023-01-29T06:44:02.126Z,99875.66
2023-01-29T06:46:30.386Z,99875.66
2023-01-29T06:48:59.879Z,99876.53
2023-01-29T06:51:28.521Z,99886.06
2023-01-29T06:53:56.863Z,99889.50
2023-01-29T06:56:25.792Z,99892.09
2023-01-29T06:58:54.085Z,99892.97
2023-01-29T07:01:35.728Z,99892.94
2023-01-29T07:04:05.498Z,99886.91
2023-01-29T07:06:34.303Z,99886.91
2023-01-29T07:09:02.736Z,99892.09
2023-01-29T07:11:31.175Z,99899.06
2023-01-29T07:13:59.505Z,99898.19
2023-01-29T07:16:29.448Z,99897.28
2023-01-29T07:18:57.707Z,99900.81
2023-01-29T07:21:26.225Z,99912.06
2023-01-29T07:23:54.620Z,99906.84
2023-01-29T07:26:22.964Z,99910.31
2023-01-29T07:28:51.241Z,99904.25
2023-01-29T07:31:19.644Z,99910.31
2023-01-29T07:33:49.578Z,99918.97
2023-01-29T07:36:17.979Z,99928.53
2023-01-29T07:38:50.478Z,99930.25
2023-01-29T07:41:19.092Z,99928.53
2023-01-29T07:43:48.547Z,99925.06
2023-01-29T07:46:16.904Z,99934.59
2023-01-29T07:48:45.291Z,99935.47
2023-01-29T07:51:15.175Z,99941.53
2023-01-29T07:53:44.487Z,99932.88
2023-01-29T07:56:12.836Z,99937.19
2023-01-29T07:58:41.081Z,99934.59
2023-01-29T08:01:10.145Z,99934.59
2023-01-29T08:03:38.502Z,99944.13
2023-01-29T08:06:07.048Z,99938.94
2023-01-29T08:08:36.856Z,99938.94
2023-01-29T08:11:06.214Z,99930.22
2023-01-29T08:13:34.914Z,99938.06
2023-01-29T08:16:04.079Z,99930.25
2023-01-29T08:18:32.770Z,99921.56
2023-01-29T08:21:02.388Z,99919.81
2023-01-29T08:23:31.146Z,99921.56
2023-01-29T08:26:00.902Z,99913.72
2023-01-29T08:28:29.178Z,99913.75
2023-01-29T08:30:57.499Z,99910.25
2023-01-29T08:33:38.693Z,99906.81
2023-01-29T08:36:08.917Z,99903.31
2023-01-29T08:38:37.492Z,99901.59
2023-01-29T08:41:08.066Z,99894.63
2023-01-29T08:43:37.199Z,99898.94
2023-01-29T08:46:06.675Z,99898.94
2023-01-29T08:48:35.115Z,99891.97
2023-01-29T08:51:04.653Z,99896.31
2023-01-29T08:53:33.627Z,99891.09
2023-01-29T08:56:02.134Z,99896.25
2023-01-29T08:58:31.859Z,99900.63
2023-01-29T09:01:07.544Z,99907.53
2023-01-29T09:03:36.257Z,99887.53
2023-01-29T09:06:04.864Z,99890.13
2023-01-29T09:08:33.125Z,99886.69
2023-01-29T09:11:01.515Z,99890.13
2023-01-29T09:13:31.262Z,99888.34
2023-01-29T09:16:01.346Z,99883.16
2023-01-29T09:18:30.972Z,99879.59
2023-01-29T09:20:59.597Z,99877.00
2023-01-29T09:23:27.884Z,99873.56
2023-01-29T09:25:56.137Z,99873.44
2023-01-29T09:28:24.691Z,99870.94
2023-01-29T09:30:54.603Z,99875.25
2023-01-29T09:33:24.787Z,99856.13
2023-01-29T09:35:53.084Z,99850.91
2023-01-29T09:38:23.939Z,99856.94
2023-01-29T09:41:01.494Z,99849.97
2023-01-29T09:43:41.783Z,99838.75
2023-01-29T09:46:20.659Z,99849.13
2023-01-29T09:48:54.163Z,99839.56
2023-01-29T09:51:29.637Z,99846.53
2023-01-29T09:54:10.569Z,99839.50
2023-01-29T09:56:38.891Z,99845.53
2023-01-29T09:59:07.203Z,99828.22
2023-01-29T10:01:48.782Z,99824.72
2023-01-29T10:04:50.826Z,99816.84
2023-01-29T10:07:38.107Z,99814.13
2023-01-29T10:10:20.321Z,99800.19
2023-01-29T10:13:02.727Z,99797.59
2023-01-29T10:15:43.546Z,99803.63
2023-01-29T10:18:53.443Z,99802.72
2023-01-29T10:21:38.938Z,99790.50
2023-01-29T10:24:23.751Z,99784.34
2023-01-29T10:26:53.518Z,99794.84
2023-01-29T10:29:22.851Z,99784.34
2023-01-29T10:31:56.414Z,99780.78
2023-01-29T10:34:34.833Z,99779.94
2023-01-29T10:37:09.611Z,99780.84
2023-01-29T10:39:37.988Z,99761.69
2023-01-29T10:42:19.776Z,99767.72
2023-01-29T10:45:01.211Z,99762.44
2023-01-29T10:48:08.686Z,99767.72
2023-01-29T10:50:49.012Z,99762.44
2023-01-29T10:53:32.840Z,99764.09
2023-01-29T10:56:22.841Z,99751.78
2023-01-29T10:58:54.941Z,99757.94
2023-01-29T11:01:24.094Z,99753.53
2023-01-29T11:03:59.559Z,99750.88
2023-01-29T11:06:33.002Z,99750.88
2023-01-29T11:09:08.174Z,99754.25
2023-01-29T11:11:43.188Z,99751.59
2023-01-29T11:14:16.014Z,99754.28
2023-01-29T11:16:46.896Z,99746.47
2023-01-29T11:19:16.561Z,99736.97
2023-01-29T11:22:00.248Z,99741.31
2023-01-29T11:24:29.348Z,99733.47
2023-01-29T11:27:00.260Z,99738.81
2023-01-29T11:29:34.037Z,99732.59
2023-01-29T11:32:06.807Z,99736.09
2023-01-29T11:34:35.160Z,99728.31
2023-01-29T11:37:16.211Z,99719.47
2023-01-29T11:39:47.264Z,99704.59
2023-01-29T11:42:21.501Z,99695.09
2023-01-29T11:44:50.752Z,99701.09
2023-01-29T11:47:24.084Z,99703.72
2023-01-29T11:49:54.999Z,99691.41
2023-01-29T11:52:27.066Z,99689.75
2023-01-29T11:54:59.349Z,99685.41
2023-01-29T11:57:31.590Z,99675.94
2023-01-29T12:00:04.998Z,99673.38
2023-01-29T12:02:39.758Z,99675.81
2023-01-29T12:05:17.165Z,99673.16
2023-01-29T12:07:50.420Z,99667.06
2023-01-29T12:10:34.222Z,99673.09
2023-01-29T12:13:07.141Z,99654.09
2023-01-29T12:15:35.654Z,99647.16
2023-01-29T12:18:13.399Z,99646.91
2023-01-29T12:20:46.762Z,99645.22
2023-01-29T12:23:29.822Z,99642.53
2023-01-29T12:26:06.024Z,99645.19
2023-01-29T12:28:55.190Z,99638.06
2023-01-29T12:31:30.942Z,99632.88
2023-01-29T12:34:07.140Z,99625.16
2023-01-29T12:36:43.122Z,99619.81
2023-01-29T12:39:18.014Z,99610.19
2023-01-29T12:41:51.330Z,99610.34
2023-01-29T12:44:22.451Z,99611.22
2023-01-29T12:46:55.510Z,99599.91
2023-01-29T12:49:28.492Z,99611.03
2023-01-29T12:52:04.202Z,99611.16
2023-01-29T12:54:40.996Z,99605.88
2023-01-29T12:57:24.008Z,99610.34
2023-01-29T12:59:59.347Z,99602.47
2023-01-29T13:02:40.729Z,99592.81
2023-01-29T13:05:20.539Z,99592.81
2023-01-29T13:07:53.116Z,99596.38
2023-01-29T13:10:29.897Z,99592.81
2023-01-29T13:13:03.764Z,99585.81
2023-01-29T13:15:37.146Z,99588.47
2023-01-29T13:18:30.582Z,99595.38
2023-01-29T13:21:00.767Z,99585.75
2023-01-29T13:23:36.072Z,99579.50
2023-01-29T13:26:06.911Z,99576.94
2023-01-29T13:28:35.469Z,99576.91
2023-01-29T13:31:19.511Z,99575.16
2023-01-29T13:33:55.127Z,99571.81
2023-01-29T13:36:29.293Z,99566.31
2023-01-29T13:39:02.585Z,99568.16
2023-01-29T13:41:42.710Z,99567.25
2023-01-29T13:44:26.261Z,99555.03
2023-01-29T13:46:59.074Z,99558.44
2023-01-29T13:49:34.114Z,99562.13
2023-01-29T13:52:17.245Z,99555.97
2023-01-29T13:54:54.078Z,99566.31
2023-01-29T13:57:50.487Z,99561.22
2023-01-29T14:00:58.922Z,99561.19
2023-01-29T14:04:10.122Z,99546.34
2023-01-29T14:06:50.102Z,99543.84
2023-01-29T14:10:03.205Z,99543.84
2023-01-29T14:12:41.647Z,99549.03
2023-01-29T14:15:21.541Z,99549.91
2023-01-29T14:18:06.847Z,99550.84
2023-01-29T14:20:45.950Z,99556.00
2023-01-29T14:23:27.782Z,99552.38
2023-01-29T14:25:56.796Z,99551.66
2023-01-29T14:28:31.081Z,99554.22
2023-01-29T14:31:00.353Z,99556.00
2023-01-29T14:33:35.912Z,99551.63
2023-01-29T14:36:10.699Z,99548.16
2023-01-29T14:38:41.384Z,99545.59
2023-01-29T14:41:22.627Z,99549.84
2023-01-29T14:43:52.360Z,99552.56
2023-01-29T14:46:44.435Z,99553.53
2023-01-29T14:49:13.089Z,99549.91
2023-01-29T14:51:45.966Z,99549.91
2023-01-29T14:54:24.405Z,99548.16
2023-01-29T14:57:00.486Z,99543.06
2023-01-29T14:59:37.494Z,99535.19
2023-01-29T15:02:18.639Z,99538.72
2023-01-29T15:04:51.097Z,99537.06
2023-01-29T15:07:28.365Z,99543.09
2023-01-29T15:10:20.982Z,99528.38
2023-01-29T15:12:56.474Z,99537.09
2023-01-29T15:15:38.957Z,99537.00
2023-01-29T15:18:13.237Z,99530.91
2023-01-29T15:20:43.282Z,99525.69
2023-01-29T15:23:27.884Z,99521.38
2023-01-29T15:25:59.050Z,99517.91
2023-01-29T15:28:30.961Z,99512.72
2023-01-29T15:31:04.308Z,99506.72
2023-01-29T15:33:34.782Z,99511.94
2023-01-29T15:36:08.780Z,99514.63
2023-01-29T15:38:37.529Z,99516.34
2023-01-29T15:41:19.055Z,99511.97
2023-01-29T15:43:49.255Z,99513.00
2023-01-29T15:46:25.972Z,99511.25
2023-01-29T15:48:56.197Z,99508.66
2023-01-29T15:51:27.627Z,99506.06
2023-01-29T15:53:59.636Z,99508.78
2023-01-29T15:56:32.279Z,99508.78
2023-01-29T15:59:05.496Z,99509.69
2023-01-29T16:01:39.209Z,99504.56
2023-01-29T16:04:14.163Z,99504.56
2023-01-29T16:06:44.009Z,99508.94
2023-01-29T16:09:19.881Z,99508.97
2023-01-29T16:11:50.645Z,99506.41
2023-01-29T16:14:23.167Z,99509.91
2023-01-29T16:16:53.436Z,99496.84
2023-01-29T16:19:24.373Z,99504.75
2023-01-29T16:21:59.475Z,99511.72
2023-01-29T16:24:29.039Z,99499.50
2023-01-29T16:27:01.069Z,99501.28
2023-01-29T16:29:33.003Z,99504.81
2023-01-29T16:32:05.486Z,99506.59
2023-01-29T16:34:37.430Z,99500.50
2023-01-29T16:37:08.692Z,99502.19
2023-01-29T16:39:40.848Z,99512.75
2023-01-29T16:42:25.135Z,99506.63
2023-01-29T16:44:57.282Z,99509.25
2023-01-29T16:47:36.146Z,99504.03
2023-01-29T16:50:27.803Z,99511.09
2023-01-29T16:52:57.980Z,99504.88
2023-01-29T16:55:26.771Z,99504.16
2023-01-29T16:57:56.851Z,99500.69
2023-01-29T17:00:27.831Z,99489.38
2023-01-29T17:03:02.737Z,99492.84
2023-01-29T17:05:34.804Z,99482.41
2023-01-29T17:08:04.337Z,99475.56
2023-01-29T17:10:34.116Z,99481.56
2023-01-29T17:13:05.233Z,99478.06
2023-01-29T17:15:36.768Z,99484.19
2023-01-29T17:18:18.259Z,99480.66
2023-01-29T17:20:46.528Z,99478.09
2023-01-29T17:23:14.995Z,99478.06
2023-01-29T17:25:45.015Z,99473.69
2023-01-29T17:28:14.934Z,99461.50
2023-01-29T17:30:44.938Z,99463.28
2023-01-29T17:33:22.671Z,99469.34
2023-01-29T17:35:51.664Z,99460.63
2023-01-29T17:38:26.433Z,99463.22
2023-01-29T17:40:59.341Z,99456.22
2023-01-29T17:43:27.731Z,99468.31
2023-01-29T17:45:56.239Z,99464.06
2023-01-29T17:48:28.603Z,99457.13
2023-01-29T17:50:58.957Z,99456.19
2023-01-29T17:53:43.287Z,99457.91
2023-01-29T17:56:17.700Z,99456.13
2023-01-29T17:58:46.036Z,99452.56
2023-01-29T18:01:14.366Z,99456.22
2023-01-29T18:03:44.623Z,99454.44
2023-01-29T18:06:26.277Z,99449.16
2023-01-29T18:08:54.677Z,99441.31
2023-01-29T18:11:22.970Z,99443.91
2023-01-29T18:13:51.519Z,99439.63
2023-01-29T18:16:22.075Z,99444.00
2023-01-29T18:18:52.883Z,99436.06
2023-01-29T18:21:21.367Z,99436.06
2023-01-29T18:23:49.682Z,99434.41
2023-01-29T18:26:18.475Z,99426.47
2023-01-29T18:28:46.843Z,99414.38
2023-01-29T18:31:15.447Z,99415.19
2023-01-29T18:33:43.796Z,99409.88
2023-01-29T18:36:13.476Z,99406.47
2023-01-29T18:38:41.877Z,99404.66
2023-01-29T18:41:11.705Z,99398.66
2023-01-29T18:43:40.876Z,99405.59
2023-01-29T18:46:10.097Z,99396.91
2023-01-29T18:48:38.942Z,99395.06
2023-01-29T18:51:08.293Z,99395.88
2023-01-29T18:53:38.078Z,99397.63
2023-01-29T18:56:07.465Z,99396.72
2023-01-29T18:58:37.193Z,99392.41
2023-01-29T19:01:09.722Z,99391.50
2023-01-29T19:03:40.603Z,99387.09
2023-01-29T19:06:11.735Z,99394.03
2023-01-29T19:08:43.039Z,99384.50
2023-01-29T19:11:12.691Z,99387.09
2023-01-29T19:13:42.650Z,99385.31
2023-01-29T19:16:12.680Z,99390.50
2023-01-29T19:18:41.313Z,99387.97
2023-01-29T19:21:11.109Z,99392.25
2023-01-29T19:23:41.842Z,99390.41
2023-01-29T19:26:10.538Z,99387.03
2023-01-29T19:28:38.873Z,99380.91
2023-01-29T19:31:07.254Z,99379.97
2023-01-29T19:33:35.550Z,99383.44
2023-01-29T19:36:05.308Z,99374.75
2023-01-29T19:38:37.980Z,99375.66
2023-01-29T19:41:07.843Z,99372.97
2023-01-29T19:43:38.235Z,99373.94
2023-01-29T19:46:07.615Z,99381.59
2023-01-29T19:48:36.311Z,99379.00
2023-01-29T19:51:08.460Z,99371.25
2023-01-29T19:53:37.597Z,99369.44
2023-01-29T19:56:09.951Z,99369.44
2023-01-29T19:58:38.795Z,99379.09
2023-01-29T20:01:08.975Z,99377.22
2023-01-29T20:03:38.116Z,99372.16
2023-01-29T20:06:08.663Z,99376.47
2023-01-29T20:08:37.399Z,99367.81
2023-01-29T20:11:07.642Z,99370.44
2023-01-29T20:13:35.915Z,99361.72
2023-01-29T20:16:05.613Z,99362.59
2023-01-29T20:18:34.253Z,99361.00
2023-01-29T20:21:08.274Z,99354.03
2023-01-29T20:23:38.774Z,99349.66
2023-01-29T20:26:09.891Z,99347.13
2023-01-29T20:28:38.492Z,99342.75
2023-01-29T20:31:08.265Z,99328.75
2023-01-29T20:36:23.470Z,99321.84
2023-01-29T20:38:51.731Z,99325.25
2023-01-29T20:41:21.816Z,99320.06
2023-01-29T20:43:51.131Z,99314.94
2023-01-29T20:46:29.278Z,99307.13
2023-01-29T20:48:57.654Z,99309.88
2023-01-29T20:51:25.963Z,99300.25
2023-01-29T20:53:55.564Z,99304.72
2023-01-29T20:56:36.349Z,99291.69
2023-01-29T20:59:11.126Z,99295.28
2023-01-29T21:01:39.428Z,99288.28
2023-01-29T21:04:07.816Z,99283.06
2023-01-29T21:06:36.099Z,99290.94
2023-01-29T21:09:06.030Z,99282.31
2023-01-29T21:11:35.798Z,99275.34
2023-01-29T21:14:04.429Z,99280.53
2023-01-29T21:16:32.872Z,99277.91
2023-01-29T21:19:03.674Z,99268.50
2023-01-29T21:21:31.944Z,99271.09
2023-01-29T21:24:00.568Z,99262.41
2023-01-29T21:26:28.963Z,99264.13
2023-01-29T21:28:58.692Z,99263.28
2023-01-29T21:31:27.060Z,99256.31
2023-01-29T21:33:56.035Z,99265.03
2023-01-29T21:36:24.420Z,99265.81
2023-01-29T21:38:52.786Z,99259.88
2023-01-29T21:41:41.129Z,99260.81
2023-01-29T21:44:11.826Z,99258.19
2023-01-29T21:46:40.209Z,99261.81
2023-01-29T21:49:09.535Z,99262.81
2023-01-29T21:51:37.842Z,99261.09
2023-01-29T21:54:06.265Z,99253.34
2023-01-29T21:56:34.599Z,99252.44
2023-01-29T21:59:02.868Z,99258.56
2023-01-29T22:01:38.086Z,99248.16
2023-01-29T22:04:08.331Z,99244.75
2023-01-29T22:06:36.721Z,99239.44
2023-01-29T22:09:05.123Z,99238.63
2023-01-29T22:11:33.738Z,99242.09
2023-01-29T22:14:02.049Z,99233.41
2023-01-29T22:16:30.489Z,99225.53
2023-01-29T22:19:00.350Z,99224.78
2023-01-29T22:21:28.631Z,99227.34
2023-01-29T22:23:57.218Z,99212.66
2023-01-29T22:26:25.540Z,99212.53
2023-01-29T22:28:53.847Z,99205.72
2023-01-29T22:31:22.487Z,99196.09
2023-01-29T22:33:50.878Z,99192.66
2023-01-29T22:36:20.893Z,99184.75
2023-01-29T22:38:49.170Z,99186.63
2023-01-29T22:41:17.582Z,99173.59
2023-01-29T22:43:45.827Z,99173.59
2023-01-29T22:46:14.138Z,99167.47
2023-01-29T22:48:42.430Z,99165.84
2023-01-29T22:51:11.972Z,99161.47
2023-01-29T22:53:44.589Z,99149.38
2023-01-29T22:56:13.443Z,99138.69
2023-01-29T22:58:42.245Z,99127.50
2023-01-29T23:01:11.449Z,99125.88
2023-01-29T23:03:39.832Z,99118.13
2023-01-29T23:06:08.121Z,99120.66
2023-01-29T23:08:36.394Z,99099.88
2023-01-29T23:11:15.097Z,99098.94
2023-01-29T23:13:44.540Z,99097.19
2023-01-29T23:16:13.254Z,99103.34
2023-01-29T23:18:42.100Z,99094.75
2023-01-29T23:21:10.793Z,99091.19
2023-01-29T23:23:39.749Z,99083.41
2023-01-29T23:26:29.106Z,99080.88
2023-01-29T23:28:57.464Z,99073.00
2023-01-29T23:31:25.791Z,99069.66
2023-01-29T23:33:54.115Z,99067.91
2023-01-29T23:36:22.695Z,99066.09
2023-01-29T23:38:51.214Z,99063.53
2023-01-29T23:41:21.330Z,99072.25
2023-01-29T23:43:50.007Z,99060.06
2023-01-29T23:46:18.394Z,99047.00
2023-01-29T23:48:46.683Z,99038.31
2023-01-29T23:51:15.024Z,99024.53
2023-01-29T23:53:43.441Z,99028.84
2023-01-29T23:56:12.423Z,99031.38
2023-01-29T23:58:42.255Z,99025.38
